createdAt,value
2022-12-11T00:00:33.845Z,86.90
2022-12-11T00:02:37.388Z,87.41
2022-12-11T00:04:40.436Z,87.41
2022-12-11T00:06:43.526Z,86.70
2022-12-11T00:08:47.180Z,86.08
2022-12-11T00:10:50.905Z,86.65
2022-12-11T00:12:53.907Z,86.65
2022-12-11T00:14:56.889Z,86.36
2022-12-11T00:17:01.312Z,86.52
2022-12-11T00:19:04.585Z,86.04
2022-12-11T00:21:10.064Z,86.68
2022-12-11T00:23:13.234Z,85.84
2022-12-11T00:25:16.477Z,86.28
2022-12-11T00:27:19.579Z,86.23
2022-12-11T00:29:23.774Z,85.92
2022-12-11T00:31:26.923Z,85.95
2022-12-11T00:33:32.033Z,86.01
2022-12-11T00:35:35.186Z,86.20
2022-12-11T00:37:38.236Z,86.04
2022-12-11T00:39:41.306Z,86.10
2022-12-11T00:41:44.471Z,86.02
2022-12-11T00:43:48.029Z,85.69
2022-12-11T00:45:51.087Z,85.83
2022-12-11T00:47:54.259Z,86.41
2022-12-11T00:49:58.688Z,85.68
2022-12-11T00:52:03.215Z,85.86
2022-12-11T00:54:06.697Z,86.18
2022-12-11T00:56:11.992Z,85.57
2022-12-11T00:58:15.396Z,85.96
2022-12-11T01:00:18.968Z,86.19
2022-12-11T01:02:22.231Z,86.37
2022-12-11T01:04:25.783Z,85.69
2022-12-11T01:06:30.641Z,85.90
2022-12-11T01:08:38.279Z,86.19
2022-12-11T01:10:40.853Z,85.26
2022-12-11T01:12:43.914Z,85.11
2022-12-11T01:14:46.980Z,84.97
2022-12-11T01:16:50.210Z,85.41
2022-12-11T01:18:53.275Z,85.15
2022-12-11T01:20:56.483Z,84.89
2022-12-11T01:23:01.610Z,84.72
2022-12-11T01:25:05.049Z,85.06
2022-12-11T01:27:08.549Z,85.06
2022-12-11T01:29:12.120Z,84.82
2022-12-11T01:31:17.437Z,85.27
2022-12-11T01:33:20.547Z,84.60
2022-12-11T01:35:23.595Z,84.95
2022-12-11T01:37:26.660Z,84.31
2022-12-11T01:39:31.051Z,84.34
2022-12-11T01:41:34.328Z,84.50
2022-12-11T01:43:57.266Z,83.77
2022-12-11T01:46:00.697Z,83.80
2022-12-11T01:48:07.985Z,83.17
2022-12-11T01:50:11.103Z,82.69
2022-12-11T01:52:17.588Z,82.18
2022-12-11T01:54:22.964Z,81.62
2022-12-11T01:56:28.168Z,81.40
2022-12-11T01:58:33.812Z,81.13
2022-12-11T02:00:36.923Z,81.15
2022-12-11T02:02:42.037Z,80.86
2022-12-11T02:04:46.098Z,80.34
2022-12-11T02:06:51.885Z,79.99
2022-12-11T02:09:16.036Z,79.47
2022-12-11T02:11:22.160Z,79.34
2022-12-11T02:13:32.014Z,79.77
2022-12-11T02:15:37.494Z,79.79
2022-12-11T02:17:43.550Z,79.62
2022-12-11T02:19:57.028Z,79.95
2022-12-11T02:22:04.655Z,79.76
2022-12-11T02:24:19.916Z,79.84
2022-12-11T02:26:37.962Z,80.35
2022-12-11T02:28:45.158Z,80.51
2022-12-11T02:30:52.250Z,79.91
2022-12-11T02:32:56.997Z,80.49
2022-12-11T02:35:07.472Z,79.25
2022-12-11T02:37:15.534Z,79.78
2022-12-11T02:39:19.789Z,79.46
2022-12-11T02:41:25.538Z,79.41
2022-12-11T02:43:30.086Z,79.81
2022-12-11T02:45:35.633Z,79.47
2022-12-11T02:47:39.394Z,80.48
2022-12-11T02:49:45.156Z,81.09
2022-12-11T02:51:48.847Z,80.54
2022-12-11T02:53:54.087Z,79.47
2022-12-11T02:56:05.241Z,79.43
2022-12-11T02:58:14.475Z,79.23
2022-12-11T03:00:19.312Z,79.62
2022-12-11T03:02:24.201Z,79.83
2022-12-11T03:04:27.837Z,79.74
2022-12-11T03:06:35.683Z,80.51
2022-12-11T03:08:39.554Z,80.26
2022-12-11T03:10:43.060Z,80.36
2022-12-11T03:12:53.354Z,79.97
2022-12-11T03:14:58.293Z,80.02
2022-12-11T03:17:10.187Z,80.29
2022-12-11T03:19:22.263Z,80.01
2022-12-11T03:21:29.566Z,79.96
2022-12-11T03:23:35.707Z,79.92
2022-12-11T03:25:45.393Z,80.31
2022-12-11T03:27:54.286Z,80.18
2022-12-11T03:30:01.862Z,80.52
2022-12-11T03:32:08.794Z,80.27
2022-12-11T03:34:17.360Z,80.45
2022-12-11T03:36:24.844Z,80.47
2022-12-11T03:38:35.520Z,80.99
2022-12-11T03:40:41.321Z,81.03
2022-12-11T03:42:46.532Z,80.93
2022-12-11T03:44:51.720Z,80.96
2022-12-11T03:46:56.297Z,80.90
2022-12-11T03:49:02.713Z,80.83
2022-12-11T03:51:09.361Z,81.15
2022-12-11T03:53:13.044Z,81.38
2022-12-11T03:55:18.416Z,81.59
2022-12-11T03:57:26.920Z,81.99
2022-12-11T03:59:30.601Z,81.64
2022-12-11T04:01:34.227Z,81.51
2022-12-11T04:03:37.892Z,81.21
2022-12-11T04:05:42.531Z,81.91
2022-12-11T04:07:47.082Z,81.48
2022-12-11T04:09:50.124Z,81.44
2022-12-11T04:11:53.185Z,81.58
2022-12-11T04:14:10.189Z,81.91
2022-12-11T04:16:13.316Z,81.99
2022-12-11T04:18:34.001Z,82.02
2022-12-11T04:20:54.597Z,82.42
2022-12-11T04:23:16.979Z,83.02
2022-12-11T04:25:20.460Z,82.40
2022-12-11T04:27:41.364Z,82.62
2022-12-11T04:29:44.380Z,82.48
2022-12-11T04:31:47.402Z,82.54
2022-12-11T04:33:50.478Z,82.95
2022-12-11T04:35:53.533Z,82.73
2022-12-11T04:37:56.726Z,83.17
2022-12-11T04:40:01.168Z,82.77
2022-12-11T04:42:04.345Z,82.93
2022-12-11T04:44:07.380Z,83.19
2022-12-11T04:46:12.377Z,83.23
2022-12-11T04:48:15.448Z,83.21
2022-12-11T04:50:19.019Z,83.50
2022-12-11T04:52:22.212Z,83.14
2022-12-11T04:54:25.287Z,83.17
2022-12-11T04:56:29.688Z,83.30
2022-12-11T04:58:32.714Z,83.39
2022-12-11T05:00:35.736Z,83.41
2022-12-11T05:02:40.003Z,83.29
2022-12-11T05:04:43.447Z,82.99
2022-12-11T05:06:46.462Z,83.03
2022-12-11T05:08:49.648Z,83.59
2022-12-11T05:10:59.382Z,83.89
2022-12-11T05:13:03.772Z,83.60
2022-12-11T05:15:08.620Z,83.75
2022-12-11T05:17:11.942Z,83.15
2022-12-11T05:19:15.245Z,83.70
2022-12-11T05:21:18.420Z,83.78
2022-12-11T05:23:21.669Z,83.41
2022-12-11T05:25:24.671Z,83.22
2022-12-11T05:27:27.922Z,83.57
2022-12-11T05:29:32.274Z,83.81
2022-12-11T05:31:35.482Z,84.19
2022-12-11T05:33:38.554Z,83.33
2022-12-11T05:35:48.045Z,83.61
2022-12-11T05:37:51.081Z,83.77
2022-12-11T05:39:54.392Z,83.23
2022-12-11T05:41:57.513Z,83.50
2022-12-11T05:44:00.618Z,83.88
2022-12-11T05:46:08.829Z,83.41
2022-12-11T05:48:11.981Z,83.62
2022-12-11T05:50:15.185Z,83.82
2022-12-11T05:52:18.443Z,83.52
2022-12-11T05:54:21.638Z,82.92
2022-12-11T05:56:26.577Z,82.99
2022-12-11T05:58:29.767Z,83.43
2022-12-11T06:00:35.988Z,83.16
2022-12-11T06:02:41.286Z,83.45
2022-12-11T06:04:44.706Z,83.51
2022-12-11T06:06:47.901Z,83.49
2022-12-11T06:08:51.538Z,83.79
2022-12-11T06:10:54.546Z,83.75
2022-12-11T06:12:57.576Z,83.93
2022-12-11T06:15:00.647Z,84.45
2022-12-11T06:17:03.667Z,84.15
2022-12-11T06:19:08.074Z,84.03
2022-12-11T06:21:14.661Z,84.10
2022-12-11T06:23:17.655Z,84.13
2022-12-11T06:25:20.700Z,83.60
2022-12-11T06:27:23.780Z,83.42
2022-12-11T06:29:31.787Z,83.68
2022-12-11T06:31:35.131Z,83.29
2022-12-11T06:33:38.699Z,83.75
2022-12-11T06:35:43.197Z,83.51
2022-12-11T06:37:46.319Z,82.67
2022-12-11T06:39:49.289Z,82.75
2022-12-11T06:41:52.428Z,82.43
2022-12-11T06:43:55.674Z,83.03
2022-12-11T06:46:03.847Z,83.26
2022-12-11T06:48:07.850Z,83.01
2022-12-11T06:50:11.832Z,82.95
2022-12-11T06:52:18.599Z,82.71
2022-12-11T06:54:21.923Z,83.03
2022-12-11T06:56:25.998Z,82.78
2022-12-11T06:58:31.423Z,82.54
2022-12-11T07:00:36.271Z,83.22
2022-12-11T07:02:39.414Z,83.04
2022-12-11T07:04:43.061Z,82.90
2022-12-11T07:06:47.438Z,83.67
2022-12-11T07:08:52.263Z,83.19
2022-12-11T07:11:04.089Z,83.04
2022-12-11T07:13:07.417Z,82.37
2022-12-11T07:15:11.642Z,83.06
2022-12-11T07:17:15.530Z,82.84
2022-12-11T07:19:18.758Z,82.87
2022-12-11T07:21:22.579Z,83.48
2022-12-11T07:23:25.700Z,83.45
2022-12-11T07:25:30.128Z,83.53
2022-12-11T07:27:33.165Z,83.69
2022-12-11T07:29:36.221Z,83.73
2022-12-11T07:31:39.440Z,84.52
2022-12-11T07:33:43.640Z,84.16
2022-12-11T07:35:46.934Z,84.32
2022-12-11T07:37:50.132Z,84.68
2022-12-11T07:39:53.320Z,84.90
2022-12-11T07:41:57.798Z,85.52
2022-12-11T07:44:01.448Z,85.42
2022-12-11T07:46:05.553Z,86.04
2022-12-11T07:48:08.672Z,86.12
2022-12-11T07:50:11.794Z,86.03
2022-12-11T07:52:15.889Z,85.84
2022-12-11T07:54:21.095Z,86.52
2022-12-11T07:56:24.714Z,86.29
2022-12-11T07:58:29.632Z,86.76
2022-12-11T08:00:32.869Z,86.22
2022-12-11T08:02:37.481Z,86.33
2022-12-11T08:04:40.753Z,86.12
2022-12-11T08:06:44.358Z,86.18
2022-12-11T08:08:48.427Z,85.52
2022-12-11T08:10:51.998Z,85.44
2022-12-11T08:12:55.224Z,85.49
2022-12-11T08:14:59.710Z,86.00
2022-12-11T08:17:03.304Z,85.76
2022-12-11T08:19:06.449Z,86.23
2022-12-11T08:21:10.613Z,85.79
2022-12-11T08:23:13.614Z,86.17
2022-12-11T08:25:16.781Z,85.62
2022-12-11T08:27:19.857Z,85.36
2022-12-11T08:29:22.988Z,85.49
2022-12-11T08:31:27.678Z,85.22
2022-12-11T08:33:30.667Z,85.36
2022-12-11T08:35:33.847Z,84.97
2022-12-11T08:37:36.957Z,85.06
2022-12-11T08:39:40.047Z,85.17
2022-12-11T08:41:43.210Z,85.43
2022-12-11T08:43:46.457Z,84.64
2022-12-11T08:45:49.599Z,84.48
2022-12-11T08:47:54.637Z,84.80
2022-12-11T08:49:57.905Z,85.17
2022-12-11T08:52:01.015Z,85.18
2022-12-11T08:54:04.234Z,85.06
2022-12-11T08:56:09.412Z,84.98
2022-12-11T08:58:12.508Z,84.50
2022-12-11T09:00:16.542Z,84.63
2022-12-11T09:02:19.676Z,85.39
2022-12-11T09:04:24.324Z,85.65
2022-12-11T09:06:30.663Z,85.98
2022-12-11T09:08:34.281Z,86.31
2022-12-11T09:10:37.653Z,86.36
2022-12-11T09:12:40.888Z,86.52
2022-12-11T09:14:44.081Z,87.42
2022-12-11T09:16:49.120Z,87.67
2022-12-11T09:18:53.693Z,87.50
2022-12-11T09:21:02.056Z,87.02
2022-12-11T09:23:05.141Z,87.61
2022-12-11T09:25:09.798Z,87.53
2022-12-11T09:27:12.953Z,87.16
2022-12-11T09:29:16.035Z,87.79
2022-12-11T09:31:23.452Z,86.61
2022-12-11T09:33:26.765Z,86.61
2022-12-11T09:35:29.793Z,86.31
2022-12-11T09:37:35.702Z,85.77
2022-12-11T09:39:39.149Z,85.46
2022-12-11T09:41:49.663Z,85.68
2022-12-11T09:44:00.523Z,85.94
2022-12-11T09:46:06.945Z,86.14
2022-12-11T09:48:11.288Z,85.40
2022-12-11T09:50:18.717Z,85.72
2022-12-11T09:52:25.055Z,85.11
2022-12-11T09:54:29.523Z,85.85
2022-12-11T09:56:34.627Z,85.47
2022-12-11T09:58:44.752Z,85.08
2022-12-11T10:00:49.750Z,84.78
2022-12-11T10:03:28.054Z,84.94
2022-12-11T10:05:35.350Z,85.23
2022-12-11T10:07:42.738Z,84.82
2022-12-11T10:09:51.387Z,84.33
2022-12-11T10:12:03.764Z,84.31
2022-12-11T10:14:14.320Z,84.75
2022-12-11T10:16:21.922Z,83.92
2022-12-11T10:18:26.252Z,83.94
2022-12-11T10:20:35.088Z,83.92
2022-12-11T10:22:38.224Z,84.02
2022-12-11T10:27:16.621Z,83.59
2022-12-11T10:29:19.689Z,83.59
2022-12-11T10:31:30.949Z,83.08
2022-12-11T10:33:38.740Z,83.31
2022-12-11T10:35:46.706Z,83.30
2022-12-11T10:37:49.912Z,83.01
2022-12-11T10:39:55.189Z,82.77
2022-12-11T10:41:58.848Z,82.26
2022-12-11T10:44:15.959Z,82.37
2022-12-11T10:46:21.067Z,82.18
2022-12-11T10:48:24.646Z,81.85
2022-12-11T10:50:27.848Z,80.96
2022-12-11T10:52:34.463Z,80.86
2022-12-11T10:54:39.272Z,80.60
2022-12-11T10:56:42.611Z,80.26
2022-12-11T10:58:50.506Z,80.27
2022-12-11T11:01:05.284Z,80.79
2022-12-11T11:03:22.159Z,79.57
2022-12-11T11:05:30.372Z,79.86
2022-12-11T11:07:34.450Z,79.37
2022-12-11T11:09:38.160Z,80.36
2022-12-11T11:11:41.568Z,79.23
2022-12-11T11:13:45.473Z,80.93
2022-12-11T11:15:48.788Z,80.11
2022-12-11T11:17:56.046Z,81.28
2022-12-11T11:20:00.962Z,80.25
2022-12-11T11:22:07.151Z,80.58
2022-12-11T11:24:26.356Z,79.77
2022-12-11T11:26:56.684Z,80.91
2022-12-11T11:28:57.202Z,80.92
2022-12-11T11:31:03.745Z,79.82
2022-12-11T11:33:15.148Z,80.17
2022-12-11T11:35:21.543Z,80.04
2022-12-11T11:37:27.603Z,80.72
2022-12-11T11:39:37.216Z,80.30
2022-12-11T11:41:46.751Z,80.58
2022-12-11T11:43:52.764Z,79.99
2022-12-11T11:45:58.954Z,80.41
2022-12-11T11:48:11.916Z,80.32
2022-12-11T11:50:17.902Z,80.20
2022-12-11T11:52:27.177Z,80.07
2022-12-11T11:54:33.548Z,80.16
2022-12-11T11:56:38.411Z,80.06
2022-12-11T11:58:44.925Z,80.92
2022-12-11T12:00:48.394Z,80.77
2022-12-11T12:02:54.394Z,80.29
2022-12-11T12:04:59.410Z,80.58
2022-12-11T12:07:13.042Z,80.36
2022-12-11T12:09:24.955Z,79.88
2022-12-11T12:11:32.984Z,80.41
2022-12-11T12:13:50.684Z,80.21
2022-12-11T12:15:58.197Z,80.02
2022-12-11T12:18:08.202Z,80.08
2022-12-11T12:20:20.737Z,79.91
2022-12-11T12:22:48.721Z,79.73
2022-12-11T12:24:59.152Z,80.07
2022-12-11T12:27:29.133Z,80.42
2022-12-11T12:29:44.758Z,79.43
2022-12-11T12:32:07.149Z,79.17
2022-12-11T12:34:16.649Z,78.60
2022-12-11T12:36:27.022Z,78.97
2022-12-11T12:38:37.225Z,79.28
2022-12-11T12:40:50.037Z,79.64
2022-12-11T12:42:59.170Z,79.21
2022-12-11T12:45:07.270Z,78.47
2022-12-11T12:47:14.872Z,79.34
2022-12-11T12:49:29.053Z,77.83
2022-12-11T12:51:33.593Z,78.70
2022-12-11T12:53:38.547Z,77.48
2022-12-11T12:55:41.860Z,77.47
2022-12-11T12:57:47.518Z,78.84
2022-12-11T12:59:55.603Z,77.51
2022-12-11T13:02:00.835Z,78.31
2022-12-11T13:04:06.433Z,78.19
2022-12-11T13:06:11.023Z,77.55
2022-12-11T13:08:25.943Z,78.22
2022-12-11T13:10:32.634Z,78.52
2022-12-11T13:12:43.322Z,78.67
2022-12-11T13:14:57.767Z,78.61
2022-12-11T13:17:24.707Z,78.51
2022-12-11T13:19:28.944Z,77.65
2022-12-11T13:21:33.754Z,78.17
2022-12-11T13:23:40.355Z,79.20
2022-12-11T13:25:50.169Z,78.55
2022-12-11T13:27:53.751Z,78.99
2022-12-11T13:30:06.800Z,79.05
2022-12-11T13:32:23.692Z,79.08
2022-12-11T13:34:29.610Z,78.49
2022-12-11T13:36:34.271Z,79.44
2022-12-11T13:38:40.737Z,79.31
2022-12-11T13:40:45.547Z,78.99
2022-12-11T13:42:51.495Z,78.50
2022-12-11T13:44:54.855Z,78.57
2022-12-11T13:47:00.145Z,78.25
2022-12-11T13:49:04.948Z,78.08
2022-12-11T13:51:08.769Z,79.13
2022-12-11T13:53:16.611Z,79.17
2022-12-11T13:55:25.793Z,79.41
2022-12-11T13:57:29.518Z,77.97
2022-12-11T13:59:35.369Z,78.58
2022-12-11T14:01:38.663Z,78.83
2022-12-11T14:03:44.388Z,79.35
2022-12-11T14:05:47.912Z,79.49
2022-12-11T14:07:53.744Z,79.02
2022-12-11T14:10:02.473Z,78.88
2022-12-11T14:12:07.897Z,78.60
2022-12-11T14:14:20.674Z,77.73
2022-12-11T14:16:26.158Z,77.57
2022-12-11T14:18:32.213Z,77.51
2022-12-11T14:20:35.807Z,76.88
2022-12-11T14:22:39.465Z,77.54
2022-12-11T14:24:51.542Z,77.47
2022-12-11T14:26:55.516Z,77.71
2022-12-11T14:29:00.379Z,77.83
2022-12-11T14:31:04.681Z,78.62
2022-12-11T14:33:07.965Z,78.52
2022-12-11T14:35:22.505Z,78.67
2022-12-11T14:37:26.546Z,77.66
2022-12-11T14:39:31.885Z,78.22
2022-12-11T14:41:42.625Z,77.68
2022-12-11T14:43:48.453Z,78.41
2022-12-11T14:45:57.077Z,78.60
2022-12-11T14:48:01.132Z,77.95
2022-12-11T14:50:07.157Z,78.14
2022-12-11T14:52:15.821Z,77.23
2022-12-11T14:54:26.732Z,77.13
2022-12-11T14:56:31.003Z,78.16
2022-12-11T14:58:34.749Z,77.27
2022-12-11T15:00:38.476Z,78.38
2022-12-11T15:02:43.232Z,77.40
2022-12-11T15:04:46.359Z,77.51
2022-12-11T15:06:50.591Z,78.21
2022-12-11T15:08:53.793Z,78.52
2022-12-11T15:11:05.204Z,79.33
2022-12-11T15:13:09.126Z,77.77
2022-12-11T15:15:16.741Z,78.06
2022-12-11T15:17:20.038Z,78.28
2022-12-11T15:19:26.977Z,78.11
2022-12-11T15:21:31.284Z,77.82
2022-12-11T15:23:35.564Z,78.41
2022-12-11T15:25:38.635Z,78.55
2022-12-11T15:27:42.027Z,77.56
2022-12-11T15:29:45.156Z,77.48
2022-12-11T15:31:48.179Z,77.59
2022-12-11T15:33:51.380Z,77.94
2022-12-11T15:36:01.520Z,76.65
2022-12-11T15:38:04.922Z,76.84
2022-12-11T15:40:10.638Z,77.57
2022-12-11T15:42:16.634Z,78.14
2022-12-11T15:44:21.290Z,78.69
2022-12-11T15:46:24.650Z,77.64
2022-12-11T15:48:27.814Z,77.22
2022-12-11T15:50:31.285Z,77.22
2022-12-11T15:52:35.943Z,77.64
2022-12-11T15:54:39.055Z,77.45
2022-12-11T15:56:42.182Z,76.89
2022-12-11T15:58:46.309Z,77.39
2022-12-11T16:00:49.834Z,76.56
2022-12-11T16:02:53.079Z,77.56
2022-12-11T16:04:56.245Z,78.52
2022-12-11T16:06:59.536Z,77.96
2022-12-11T16:09:05.235Z,77.15
2022-12-11T16:11:08.380Z,76.74
2022-12-11T16:13:11.741Z,77.19
2022-12-11T16:15:22.802Z,77.02
2022-12-11T16:17:26.915Z,77.40
2022-12-11T16:19:29.964Z,77.11
2022-12-11T16:21:32.952Z,76.96
2022-12-11T16:23:36.236Z,76.32
2022-12-11T16:25:41.535Z,76.61
2022-12-11T16:27:44.730Z,76.80
2022-12-11T16:29:48.077Z,76.26
2022-12-11T16:31:51.228Z,77.08
2022-12-11T16:33:54.384Z,76.52
2022-12-11T16:35:57.498Z,77.70
2022-12-11T16:38:00.801Z,78.43
2022-12-11T16:40:04.959Z,77.97
2022-12-11T16:42:09.489Z,78.46
2022-12-11T16:44:12.920Z,78.71
2022-12-11T16:46:18.531Z,78.85
2022-12-11T16:48:21.815Z,79.38
2022-12-11T16:50:26.079Z,79.07
2022-12-11T16:52:29.763Z,79.18
2022-12-11T16:54:32.925Z,79.96
2022-12-11T16:56:36.212Z,79.64
2022-12-11T16:58:42.026Z,79.73
2022-12-11T17:00:45.601Z,79.86
2022-12-11T17:02:48.790Z,78.87
2022-12-11T17:04:54.037Z,78.96
2022-12-11T17:06:57.491Z,78.38
2022-12-11T17:09:00.838Z,78.38
2022-12-11T17:11:06.240Z,77.56
2022-12-11T17:13:09.445Z,77.79
2022-12-11T17:15:14.112Z,77.51
2022-12-11T17:17:17.442Z,78.03
2022-12-11T17:19:20.990Z,78.94
2022-12-11T17:21:24.323Z,78.72
2022-12-11T17:23:27.611Z,79.09
2022-12-11T17:25:30.773Z,79.02
2022-12-11T17:27:33.947Z,79.59
2022-12-11T17:29:36.956Z,78.90
2022-12-11T17:31:41.732Z,78.45
2022-12-11T17:33:45.185Z,78.32
2022-12-11T17:35:48.681Z,77.82
2022-12-11T17:37:52.565Z,78.35
2022-12-11T17:39:55.743Z,78.68
2022-12-11T17:41:58.859Z,78.78
2022-12-11T17:44:02.037Z,78.84
2022-12-11T17:46:05.818Z,79.42
2022-12-11T17:48:10.252Z,79.89
2022-12-11T17:50:13.298Z,79.68
2022-12-11T17:52:16.393Z,79.19
2022-12-11T17:54:20.003Z,79.62
2022-12-11T17:56:23.918Z,80.00
2022-12-11T17:58:27.686Z,79.38
2022-12-11T18:00:33.421Z,79.51
2022-12-11T18:02:36.691Z,79.53
2022-12-11T18:04:41.229Z,79.82
2022-12-11T18:06:44.481Z,79.04
2022-12-11T18:08:47.585Z,79.56
2022-12-11T18:10:50.797Z,78.79
2022-12-11T18:12:54.220Z,80.09
2022-12-11T18:15:00.578Z,79.35
2022-12-11T18:17:04.645Z,79.69
2022-12-11T18:19:08.372Z,80.03
2022-12-11T18:21:14.948Z,79.39
2022-12-11T18:23:17.998Z,79.07
2022-12-11T18:25:22.373Z,80.02
2022-12-11T18:27:25.921Z,80.24
2022-12-11T18:29:29.277Z,80.06
2022-12-11T18:31:34.434Z,79.92
2022-12-11T18:33:40.501Z,80.14
2022-12-11T18:35:43.821Z,80.24
2022-12-11T18:37:48.326Z,80.50
2022-12-11T18:39:51.584Z,80.55
2022-12-11T18:42:24.339Z,80.94
2022-12-11T18:44:22.681Z,80.61
2022-12-11T18:46:25.924Z,80.39
2022-12-11T18:48:29.329Z,80.66
2022-12-11T18:50:32.707Z,80.93
2022-12-11T18:52:36.331Z,80.78
2022-12-11T18:54:40.891Z,80.89
2022-12-11T18:56:44.087Z,81.34
2022-12-11T18:58:47.922Z,81.61
2022-12-11T19:00:51.198Z,80.89
2022-12-11T19:02:54.502Z,80.54
2022-12-11T19:04:57.573Z,80.93
2022-12-11T19:07:01.015Z,80.89
2022-12-11T19:09:05.595Z,81.30
2022-12-11T19:11:10.262Z,80.95
2022-12-11T19:13:13.683Z,80.52
2022-12-11T19:15:22.139Z,80.61
2022-12-11T19:17:27.015Z,80.07
2022-12-11T19:19:30.199Z,79.85
2022-12-11T19:21:34.278Z,80.71
2022-12-11T19:23:37.645Z,80.77
2022-12-11T19:25:43.375Z,81.16
2022-12-11T19:27:50.163Z,80.78
2022-12-11T19:29:53.296Z,81.53
2022-12-11T19:31:57.257Z,81.84
2022-12-11T19:34:01.428Z,81.29
2022-12-11T19:36:09.244Z,81.09
2022-12-11T19:38:12.767Z,81.64
2022-12-11T19:40:16.542Z,81.24
2022-12-11T19:42:19.687Z,81.39
2022-12-11T19:44:24.270Z,80.93
2022-12-11T19:46:28.379Z,80.95
2022-12-11T19:48:31.602Z,80.59
2022-12-11T19:50:36.486Z,81.12
2022-12-11T19:52:45.804Z,81.21
2022-12-11T19:54:49.693Z,81.20
2022-12-11T19:56:53.820Z,82.27
2022-12-11T19:58:57.082Z,82.25
2022-12-11T20:01:02.172Z,82.21
2022-12-11T20:03:05.364Z,81.97
2022-12-11T20:05:09.799Z,82.23
2022-12-11T20:07:13.764Z,81.88
2022-12-11T20:09:18.216Z,82.20
2022-12-11T20:11:21.481Z,81.75
2022-12-11T20:13:24.776Z,81.80
2022-12-11T20:15:28.466Z,82.21
2022-12-11T20:17:33.602Z,82.35
2022-12-11T20:19:36.812Z,81.67
2022-12-11T20:21:39.850Z,81.54
2022-12-11T20:23:43.400Z,81.71
2022-12-11T20:25:46.702Z,81.48
2022-12-11T20:27:50.107Z,82.12
2022-12-11T20:29:53.312Z,82.24
2022-12-11T20:31:57.763Z,82.44
2022-12-11T20:34:02.545Z,82.25
2022-12-11T20:36:08.149Z,82.85
2022-12-11T20:38:11.784Z,82.90
2022-12-11T20:40:15.016Z,82.38
2022-12-11T20:42:18.308Z,81.94
2022-12-11T20:44:22.405Z,82.54
2022-12-11T20:46:27.434Z,82.42
2022-12-11T20:48:31.033Z,82.75
2022-12-11T20:50:35.892Z,82.43
2022-12-11T20:52:39.328Z,82.25
2022-12-11T20:54:42.460Z,82.39
2022-12-11T20:56:45.643Z,82.56
2022-12-11T20:58:48.816Z,82.86
2022-12-11T21:00:52.504Z,82.76
2022-12-11T21:02:57.312Z,83.26
2022-12-11T21:05:00.655Z,83.23
2022-12-11T21:07:05.364Z,83.11
2022-12-11T21:09:10.336Z,83.24
2022-12-11T21:11:13.909Z,83.56
2022-12-11T21:13:17.325Z,83.34
2022-12-11T21:15:20.496Z,84.14
2022-12-11T21:17:23.615Z,83.32
2022-12-11T21:19:26.878Z,83.31
2022-12-11T21:21:30.493Z,83.08
2022-12-11T21:23:35.785Z,83.46
2022-12-11T21:25:40.598Z,83.75
2022-12-11T21:27:43.710Z,83.65
2022-12-11T21:29:46.710Z,83.48
2022-12-11T21:31:51.211Z,83.42
2022-12-11T21:33:54.840Z,83.56
2022-12-11T21:35:59.302Z,83.78
2022-12-11T21:38:02.475Z,83.87
2022-12-11T21:40:08.133Z,83.77
2022-12-11T21:42:11.128Z,84.29
2022-12-11T21:45:26.044Z,83.53
2022-12-11T21:46:37.377Z,82.97
2022-12-11T21:48:40.618Z,83.44
2022-12-11T21:50:44.130Z,83.26
2022-12-11T21:52:47.729Z,82.75
2022-12-11T21:54:50.853Z,82.99
2022-12-11T21:56:55.403Z,82.77
2022-12-11T21:58:59.042Z,83.06
2022-12-11T22:01:02.298Z,83.73
2022-12-11T22:03:06.263Z,83.51
2022-12-11T22:05:10.817Z,83.55
2022-12-11T22:07:14.969Z,83.73
2022-12-11T22:09:18.809Z,83.63
2022-12-11T22:11:24.324Z,83.83
2022-12-11T22:13:28.971Z,83.87
2022-12-11T22:15:32.006Z,83.05
2022-12-11T22:17:36.650Z,83.75
2022-12-11T22:19:39.657Z,83.47
2022-12-11T22:21:42.961Z,83.11
2022-12-11T22:23:46.461Z,83.12
2022-12-11T22:25:50.075Z,82.47
2022-12-11T22:27:53.141Z,81.98
2022-12-11T22:29:57.612Z,82.04
2022-12-11T22:32:00.670Z,81.87
2022-12-11T22:34:03.667Z,81.75
2022-12-11T22:36:07.636Z,81.81
2022-12-11T22:38:10.795Z,81.59
2022-12-11T22:40:14.598Z,81.51
2022-12-11T22:42:17.696Z,81.06
2022-12-11T22:44:22.584Z,80.84
2022-12-11T22:46:28.679Z,80.86
2022-12-11T22:48:31.709Z,80.25
2022-12-11T22:50:34.928Z,80.50
2022-12-11T22:52:37.940Z,80.91
2022-12-11T22:54:42.047Z,80.34
2022-12-11T22:56:45.052Z,80.87
2022-12-11T22:58:48.252Z,80.79
2022-12-11T23:00:51.484Z,81.15
2022-12-11T23:02:56.137Z,81.57
2022-12-11T23:04:59.345Z,81.41
2022-12-11T23:07:02.459Z,80.69
2022-12-11T23:09:06.049Z,80.22
2022-12-11T23:11:12.519Z,80.85
2022-12-11T23:13:16.084Z,80.82
2022-12-11T23:15:19.899Z,80.29
2022-12-11T23:17:22.942Z,81.15
2022-12-11T23:19:27.924Z,81.26
2022-12-11T23:21:31.132Z,80.62
2022-12-11T23:23:34.224Z,81.07
2022-12-11T23:25:37.286Z,79.99
2022-12-11T23:27:40.275Z,79.36
2022-12-11T23:29:43.372Z,78.96
2022-12-11T23:31:46.447Z,78.53
2022-12-11T23:33:50.128Z,78.95
2022-12-11T23:35:54.657Z,79.09
2022-12-11T23:37:57.615Z,79.00
2022-12-11T23:40:01.136Z,78.61
2022-12-11T23:42:04.151Z,78.89
2022-12-11T23:44:07.270Z,78.64
2022-12-11T23:46:15.860Z,78.91
2022-12-11T23:48:19.433Z,78.23
2022-12-11T23:50:22.635Z,79.25
2022-12-11T23:52:27.075Z,78.83
2022-12-11T23:54:30.043Z,79.41
2022-12-11T23:56:33.116Z,78.91
2022-12-11T23:58:36.596Z,79.05
